sensor_id;sensor_type;location;lat;lon;timestamp;pressure;altitude;pressure_sealevel;temperature;humidity
56600;BME280;51832;48.152;11.530;2022-11-20T00:04:58;94892.66;;;8.64;70.45
56600;BME280;51832;48.152;11.530;2022-11-20T00:09:59;94896.50;;;8.50;70.77
56600;BME280;51832;48.152;11.530;2022-11-20T00:14:59;94894.78;;;8.74;70.45
56600;BME280;51832;48.152;11.530;2022-11-20T00:20:00;94908.47;;;8.46;70.47
56600;BME280;51832;48.152;11.530;2022-11-20T00:25:01;94907.16;;;8.67;70.32
56600;BME280;51832;48.152;11.530;2022-11-20T00:30:01;94907.72;;;8.57;70.90
56600;BME280;51832;48.152;11.530;2022-11-20T00:35:02;94907.28;;;9.02;69.33
56600;BME280;51832;48.152;11.530;2022-11-20T00:40:03;94907.03;;;8.62;70.31
56600;BME280;51832;48.152;11.530;2022-11-20T00:45:04;94916.28;;;8.64;70.39
56600;BME280;51832;48.152;11.530;2022-11-20T00:50:05;94913.97;;;8.86;69.98
56600;BME280;51832;48.152;11.530;2022-11-20T00:55:06;94918.28;;;8.80;69.96
56600;BME280;51832;48.152;11.530;2022-11-20T01:00:07;94918.63;;;8.54;70.49
56600;BME280;51832;48.152;11.530;2022-11-20T01:05:08;94927.94;;;8.50;70.80
56600;BME280;51832;48.152;11.530;2022-11-20T01:10:08;94943.75;;;8.25;71.37
56600;BME280;51832;48.152;11.530;2022-11-20T01:15:09;94932.56;;;8.18;71.72
56600;BME280;51832;48.152;11.530;2022-11-20T01:20:10;94935.25;;;8.30;71.25
56600;BME280;51832;48.152;11.530;2022-11-20T01:25:10;94942.84;;;8.19;71.50
56600;BME280;51832;48.152;11.530;2022-11-20T01:30:11;94941.09;;;8.32;70.57
56600;BME280;51832;48.152;11.530;2022-11-20T01:35:12;94944.09;;;8.65;69.72
56600;BME280;51832;48.152;11.530;2022-11-20T01:40:13;94943.47;;;8.81;69.41
56600;BME280;51832;48.152;11.530;2022-11-20T01:46:33;94950.41;;;8.76;70.17
56600;BME280;51832;48.152;11.530;2022-11-20T01:51:03;94953.19;;;8.63;70.44
56600;BME280;51832;48.152;11.530;2022-11-20T01:56:08;94948.94;;;8.50;70.46
56600;BME280;51832;48.152;11.530;2022-11-20T02:01:10;94947.31;;;8.67;70.16
56600;BME280;51832;48.152;11.530;2022-11-20T02:06:19;94955.34;;;8.17;71.04
56600;BME280;51832;48.152;11.530;2022-11-20T02:11:23;94948.22;;;8.43;70.42
56600;BME280;51832;48.152;11.530;2022-11-20T02:16:30;94945.38;;;8.44;69.94
56600;BME280;51832;48.152;11.530;2022-11-20T02:27:02;94945.00;;;8.41;71.02
56600;BME280;51832;48.152;11.530;2022-11-20T02:32:03;94947.53;;;8.29;70.27
56600;BME280;51832;48.152;11.530;2022-11-20T02:37:04;94950.25;;;8.04;71.14
56600;BME280;51832;48.152;11.530;2022-11-20T02:42:05;94944.66;;;8.19;71.02
56600;BME280;51832;48.152;11.530;2022-11-20T02:47:05;94940.63;;;8.83;68.82
56600;BME280;51832;48.152;11.530;2022-11-20T02:52:06;94950.72;;;8.68;69.51
56600;BME280;51832;48.152;11.530;2022-11-20T02:57:07;94953.31;;;8.38;69.13
56600;BME280;51832;48.152;11.530;2022-11-20T03:02:07;94949.47;;;8.40;69.13
56600;BME280;51832;48.152;11.530;2022-11-20T03:07:08;94937.75;;;8.43;68.82
56600;BME280;51832;48.152;11.530;2022-11-20T03:12:09;94943.41;;;8.40;68.91
56600;BME280;51832;48.152;11.530;2022-11-20T03:17:10;94946.34;;;8.32;68.62
56600;BME280;51832;48.152;11.530;2022-11-20T03:22:11;94942.06;;;7.94;69.62
56600;BME280;51832;48.152;11.530;2022-11-20T03:27:11;94940.91;;;8.27;68.37
56600;BME280;51832;48.152;11.530;2022-11-20T03:32:12;94942.38;;;8.04;69.06
56600;BME280;51832;48.152;11.530;2022-11-20T03:37:12;94929.94;;;8.36;67.87
56600;BME280;51832;48.152;11.530;2022-11-20T03:42:13;94927.53;;;8.16;68.49
56600;BME280;51832;48.152;11.530;2022-11-20T03:47:32;94938.34;;;7.40;70.89
56600;BME280;51832;48.152;11.530;2022-11-20T03:52:33;94941.34;;;7.19;72.06
56600;BME280;51832;48.152;11.530;2022-11-20T03:57:33;94954.31;;;7.07;72.66
56600;BME280;51832;48.152;11.530;2022-11-20T04:02:34;94958.69;;;7.13;72.59
56600;BME280;51832;48.152;11.530;2022-11-20T04:07:35;94957.78;;;7.26;71.86
56600;BME280;51832;48.152;11.530;2022-11-20T04:12:35;94943.16;;;7.19;71.98
56600;BME280;51832;48.152;11.530;2022-11-20T04:17:36;94948.91;;;7.52;71.25
56600;BME280;51832;48.152;11.530;2022-11-20T04:22:36;94948.50;;;7.30;71.67
56600;BME280;51832;48.152;11.530;2022-11-20T04:27:36;94941.06;;;7.27;71.25
56600;BME280;51832;48.152;11.530;2022-11-20T04:32:37;94943.78;;;7.39;71.36
56600;BME280;51832;48.152;11.530;2022-11-20T04:37:38;94951.19;;;7.48;70.94
56600;BME280;51832;48.152;11.530;2022-11-20T04:42:38;94950.41;;;7.41;71.38
56600;BME280;51832;48.152;11.530;2022-11-20T04:47:39;94946.03;;;7.60;70.31
56600;BME280;51832;48.152;11.530;2022-11-20T04:52:39;94958.13;;;7.61;70.76
56600;BME280;51832;48.152;11.530;2022-11-20T04:57:40;94949.91;;;7.33;71.79
56600;BME280;51832;48.152;11.530;2022-11-20T05:02:40;94951.53;;;7.27;71.87
56600;BME280;51832;48.152;11.530;2022-11-20T05:07:41;94951.91;;;7.56;70.96
56600;BME280;51832;48.152;11.530;2022-11-20T05:12:41;94945.09;;;7.30;71.98
56600;BME280;51832;48.152;11.530;2022-11-20T05:17:50;94955.34;;;7.56;71.34
56600;BME280;51832;48.152;11.530;2022-11-20T05:22:51;94957.91;;;7.63;71.04
56600;BME280;51832;48.152;11.530;2022-11-20T05:27:52;94950.00;;;7.44;71.62
56600;BME280;51832;48.152;11.530;2022-11-20T05:32:53;94955.50;;;7.36;71.43
56600;BME280;51832;48.152;11.530;2022-11-20T05:37:53;94948.06;;;7.08;72.67
56600;BME280;51832;48.152;11.530;2022-11-20T05:42:54;94957.78;;;7.26;71.67
56600;BME280;51832;48.152;11.530;2022-11-20T05:47:58;94957.53;;;7.34;72.30
56600;BME280;51832;48.152;11.530;2022-11-20T05:53:00;94956.41;;;7.24;71.87
56600;BME280;51832;48.152;11.530;2022-11-20T05:58:00;94952.72;;;7.31;71.63
56600;BME280;51832;48.152;11.530;2022-11-20T06:03:01;94954.63;;;7.42;71.34
56600;BME280;51832;48.152;11.530;2022-11-20T06:08:02;94968.09;;;7.46;70.42
56600;BME280;51832;48.152;11.530;2022-11-20T06:13:02;94968.34;;;7.13;70.84
56600;BME280;51832;48.152;11.530;2022-11-20T06:18:03;94955.31;;;7.38;70.01
56600;BME280;51832;48.152;11.530;2022-11-20T06:23:03;94968.91;;;7.22;69.95
56600;BME280;51832;48.152;11.530;2022-11-20T06:28:04;94960.56;;;7.06;69.69
56600;BME280;51832;48.152;11.530;2022-11-20T06:33:04;94965.13;;;7.11;68.77
56600;BME280;51832;48.152;11.530;2022-11-20T06:38:05;94962.66;;;7.23;68.63
56600;BME280;51832;48.152;11.530;2022-11-20T06:43:06;94972.16;;;7.17;69.16
56600;BME280;51832;48.152;11.530;2022-11-20T06:48:06;94977.47;;;7.04;69.05
56600;BME280;51832;48.152;11.530;2022-11-20T06:53:07;94984.13;;;7.00;68.58
56600;BME280;51832;48.152;11.530;2022-11-20T06:58:07;94989.25;;;7.20;68.18
56600;BME280;51832;48.152;11.530;2022-11-20T07:03:09;95002.31;;;7.20;67.80
56600;BME280;51832;48.152;11.530;2022-11-20T07:08:11;95006.97;;;7.18;67.43
56600;BME280;51832;48.152;11.530;2022-11-20T07:13:11;94991.13;;;7.37;66.74
56600;BME280;51832;48.152;11.530;2022-11-20T07:18:12;95002.06;;;7.28;67.37
56600;BME280;51832;48.152;11.530;2022-11-20T07:23:12;94998.56;;;7.65;66.43
56600;BME280;51832;48.152;11.530;2022-11-20T07:28:13;95005.25;;;7.36;66.74
56600;BME280;51832;48.152;11.530;2022-11-20T07:33:13;95013.47;;;7.65;66.13
56600;BME280;51832;48.152;11.530;2022-11-20T07:38:14;95006.03;;;7.62;66.30
56600;BME280;51832;48.152;11.530;2022-11-20T07:43:15;95006.63;;;7.64;66.86
56600;BME280;51832;48.152;11.530;2022-11-20T07:48:15;95009.66;;;7.36;67.60
56600;BME280;51832;48.152;11.530;2022-11-20T07:53:16;95018.94;;;7.32;68.25
56600;BME280;51832;48.152;11.530;2022-11-20T07:58:21;94998.50;;;7.47;68.13
56600;BME280;51832;48.152;11.530;2022-11-20T08:03:22;95011.81;;;7.45;67.99
56600;BME280;51832;48.152;11.530;2022-11-20T08:08:22;95016.97;;;7.27;68.54
56600;BME280;51832;48.152;11.530;2022-11-20T08:13:23;95014.16;;;7.54;68.06
56600;BME280;51832;48.152;11.530;2022-11-20T08:18:42;95018.53;;;7.35;68.74
56600;BME280;51832;48.152;11.530;2022-11-20T08:23:42;95013.38;;;7.78;67.40
56600;BME280;51832;48.152;11.530;2022-11-20T08:28:43;95028.00;;;7.61;68.07
56600;BME280;51832;48.152;11.530;2022-11-20T08:33:44;95030.72;;;7.72;67.36
56600;BME280;51832;48.152;11.530;2022-11-20T08:38:49;95013.19;;;7.73;67.25
56600;BME280;51832;48.152;11.530;2022-11-20T08:43:50;95021.53;;;7.88;66.64
56600;BME280;51832;48.152;11.530;2022-11-20T08:48:51;95020.38;;;7.28;67.37
56600;BME280;51832;48.152;11.530;2022-11-20T08:53:52;95023.47;;;7.49;66.54
56600;BME280;51832;48.152;11.530;2022-11-20T08:58:53;95014.75;;;7.56;65.55
56600;BME280;51832;48.152;11.530;2022-11-20T09:03:55;95015.94;;;7.60;66.11
56600;BME280;51832;48.152;11.530;2022-11-20T09:08:56;95019.28;;;7.67;65.29
56600;BME280;51832;48.152;11.530;2022-11-20T09:13:57;95005.88;;;7.81;64.70
56600;BME280;51832;48.152;11.530;2022-11-20T09:18:58;95015.53;;;7.81;64.86
56600;BME280;51832;48.152;11.530;2022-11-20T09:23:58;95034.63;;;7.88;63.94
56600;BME280;51832;48.152;11.530;2022-11-20T09:28:58;95036.28;;;7.58;64.79
56600;BME280;51832;48.152;11.530;2022-11-20T09:33:59;94993.91;;;7.92;63.36
56600;BME280;51832;48.152;11.530;2022-11-20T09:39:00;95000.00;;;7.86;63.30
56600;BME280;51832;48.152;11.530;2022-11-20T09:54:44;94990.50;;;8.65;60.99
56600;BME280;51832;48.152;11.530;2022-11-20T09:59:56;95007.56;;;8.37;61.39
56600;BME280;51832;48.152;11.530;2022-11-20T10:05:12;94985.78;;;8.55;60.91
56600;BME280;51832;48.152;11.530;2022-11-20T10:10:38;94975.84;;;9.05;59.79
56600;BME280;51832;48.152;11.530;2022-11-20T10:15:59;94972.91;;;9.13;59.30
56600;BME280;51832;48.152;11.530;2022-11-20T10:21:29;94991.25;;;8.72;59.65
56600;BME280;51832;48.152;11.530;2022-11-20T10:26:52;94980.53;;;8.73;60.36
56600;BME280;51832;48.152;11.530;2022-11-20T10:32:01;94992.72;;;8.98;60.00
56600;BME280;51832;48.152;11.530;2022-11-20T10:37:29;94979.25;;;8.76;60.69
56600;BME280;51832;48.152;11.530;2022-11-20T10:47:35;94988.72;;;8.95;60.25
56600;BME280;51832;48.152;11.530;2022-11-20T11:02:54;95012.22;;;8.53;59.66
56600;BME280;51832;48.152;11.530;2022-11-20T11:07:57;94957.38;;;9.00;58.79
56600;BME280;51832;48.152;11.530;2022-11-20T11:12:58;94949.91;;;8.85;59.29
56600;BME280;51832;48.152;11.530;2022-11-20T11:17:59;94962.25;;;8.97;60.15
56600;BME280;51832;48.152;11.530;2022-11-20T11:22:59;94949.31;;;8.83;60.24
56600;BME280;51832;48.152;11.530;2022-11-20T11:28:22;94966.84;;;8.71;60.82
56600;BME280;51832;48.152;11.530;2022-11-20T11:33:28;94951.03;;;8.89;60.02
56600;BME280;51832;48.152;11.530;2022-11-20T11:38:38;94948.59;;;9.06;59.50
56600;BME280;51832;48.152;11.530;2022-11-20T11:43:39;94944.50;;;9.10;59.51
56600;BME280;51832;48.152;11.530;2022-11-20T11:49:01;94945.22;;;8.87;59.63
56600;BME280;51832;48.152;11.530;2022-11-20T11:54:43;94941.31;;;9.20;59.18
56600;BME280;51832;48.152;11.530;2022-11-20T12:05:06;94953.31;;;8.38;60.83
56600;BME280;51832;48.152;11.530;2022-11-20T12:10:19;94946.84;;;8.40;65.49
56600;BME280;51832;48.152;11.530;2022-11-20T12:15:28;94956.84;;;8.25;66.82
56600;BME280;51832;48.152;11.530;2022-11-20T12:20:37;94961.03;;;8.51;66.55
56600;BME280;51832;48.152;11.530;2022-11-20T12:25:48;94942.88;;;8.68;65.53
56600;BME280;51832;48.152;11.530;2022-11-20T12:36:12;94961.75;;;8.03;65.85
56600;BME280;51832;48.152;11.530;2022-11-20T12:52:42;94953.06;;;8.21;66.59
56600;BME280;51832;48.152;11.530;2022-11-20T12:58:00;94950.88;;;8.00;67.52
56600;BME280;51832;48.152;11.530;2022-11-20T13:03:34;94940.31;;;8.06;67.61
56600;BME280;51832;48.152;11.530;2022-11-20T13:08:40;94941.34;;;7.87;69.30
56600;BME280;51832;48.152;11.530;2022-11-20T13:13:56;94921.22;;;8.06;68.92
56600;BME280;51832;48.152;11.530;2022-11-20T13:19:04;94939.00;;;7.61;69.91
56600;BME280;51832;48.152;11.530;2022-11-20T13:29:26;94913.59;;;7.79;70.20
56600;BME280;51832;48.152;11.530;2022-11-20T13:34:27;94908.38;;;7.98;70.26
56600;BME280;51832;48.152;11.530;2022-11-20T13:39:30;94901.47;;;7.85;70.39
56600;BME280;51832;48.152;11.530;2022-11-20T13:44:38;94892.31;;;8.12;69.82
56600;BME280;51832;48.152;11.530;2022-11-20T13:49:40;94900.66;;;8.21;69.93
56600;BME280;51832;48.152;11.530;2022-11-20T13:55:20;94918.94;;;8.46;69.00
56600;BME280;51832;48.152;11.530;2022-11-20T14:00:21;94893.03;;;8.19;70.11
56600;BME280;51832;48.152;11.530;2022-11-20T14:05:23;94890.63;;;8.18;69.72
56600;BME280;51832;48.152;11.530;2022-11-20T14:10:28;94899.25;;;8.55;67.85
56600;BME280;51832;48.152;11.530;2022-11-20T14:15:33;94896.94;;;8.77;66.39
56600;BME280;51832;48.152;11.530;2022-11-20T14:20:34;94910.06;;;8.47;66.91
56600;BME280;51832;48.152;11.530;2022-11-20T14:25:34;94907.72;;;8.20;67.55
56600;BME280;51832;48.152;11.530;2022-11-20T14:30:44;94905.25;;;8.26;67.54
56600;BME280;51832;48.152;11.530;2022-11-20T14:35:48;94905.25;;;8.26;67.40
56600;BME280;51832;48.152;11.530;2022-11-20T14:40:49;94909.91;;;8.24;67.93
56600;BME280;51832;48.152;11.530;2022-11-20T14:46:02;94899.94;;;8.14;67.83
56600;BME280;51832;48.152;11.530;2022-11-20T14:51:03;94914.50;;;8.10;66.87
56600;BME280;51832;48.152;11.530;2022-11-20T14:56:04;94906.50;;;7.87;67.44
56600;BME280;51832;48.152;11.530;2022-11-20T15:01:06;94930.72;;;7.82;67.09
56600;BME280;51832;48.152;11.530;2022-11-20T15:06:10;94895.81;;;7.88;67.16
56600;BME280;51832;48.152;11.530;2022-11-20T15:11:20;94902.94;;;7.99;66.57
56600;BME280;51832;48.152;11.530;2022-11-20T15:16:23;94901.75;;;8.91;63.33
56600;BME280;51832;48.152;11.530;2022-11-20T15:21:24;94909.16;;;9.36;61.85
56600;BME280;51832;48.152;11.530;2022-11-20T15:26:26;94907.38;;;8.65;64.17
56600;BME280;51832;48.152;11.530;2022-11-20T15:31:28;94903.06;;;8.23;65.79
56600;BME280;51832;48.152;11.530;2022-11-20T15:36:28;94900.47;;;8.04;67.16
56600;BME280;51832;48.152;11.530;2022-11-20T15:41:28;94903.94;;;7.80;68.32
56600;BME280;51832;48.152;11.530;2022-11-20T15:46:31;94899.59;;;7.92;67.73
56600;BME280;51832;48.152;11.530;2022-11-20T15:51:47;94893.03;;;7.83;68.42
56600;BME280;51832;48.152;11.530;2022-11-20T15:56:48;94890.84;;;7.80;68.74
56600;BME280;51832;48.152;11.530;2022-11-20T16:01:49;94892.66;;;7.61;69.17
56600;BME280;51832;48.152;11.530;2022-11-20T16:06:50;94877.97;;;7.97;68.42
56600;BME280;51832;48.152;11.530;2022-11-20T16:11:50;94879.94;;;7.65;69.65
56600;BME280;51832;48.152;11.530;2022-11-20T16:16:51;94875.44;;;7.90;68.56
56600;BME280;51832;48.152;11.530;2022-11-20T16:21:51;94871.50;;;7.81;69.08
56600;BME280;51832;48.152;11.530;2022-11-20T16:26:55;94877.59;;;7.93;68.89
56600;BME280;51832;48.152;11.530;2022-11-20T16:31:56;94871.88;;;7.84;69.25
56600;BME280;51832;48.152;11.530;2022-11-20T16:36:57;94864.75;;;7.92;69.64
56600;BME280;51832;48.152;11.530;2022-11-20T16:41:58;94867.38;;;7.92;68.81
56600;BME280;51832;48.152;11.530;2022-11-20T16:46:58;94861.53;;;7.90;69.22
56600;BME280;51832;48.152;11.530;2022-11-20T16:51:59;94861.75;;;7.88;69.28
56600;BME280;51832;48.152;11.530;2022-11-20T16:56:59;94864.91;;;7.78;69.53
56600;BME280;51832;48.152;11.530;2022-11-20T17:02:00;94861.31;;;7.73;68.77
56600;BME280;51832;48.152;11.530;2022-11-20T17:07:00;94850.97;;;7.60;69.63
56600;BME280;51832;48.152;11.530;2022-11-20T17:12:02;94839.06;;;7.64;69.30
56600;BME280;51832;48.152;11.530;2022-11-20T17:17:02;94844.13;;;7.95;67.66
56600;BME280;51832;48.152;11.530;2022-11-20T17:22:03;94853.38;;;7.79;67.82
56600;BME280;51832;48.152;11.530;2022-11-20T17:27:03;94842.34;;;7.77;67.73
56600;BME280;51832;48.152;11.530;2022-11-20T17:32:04;94837.31;;;7.76;68.07
56600;BME280;51832;48.152;11.530;2022-11-20T17:37:05;94840.06;;;7.81;67.80
56600;BME280;51832;48.152;11.530;2022-11-20T17:42:06;94834.66;;;7.94;67.38
56600;BME280;51832;48.152;11.530;2022-11-20T17:47:25;94835.50;;;7.58;68.41
56600;BME280;51832;48.152;11.530;2022-11-20T17:52:25;94835.34;;;7.71;67.88
56600;BME280;51832;48.152;11.530;2022-11-20T17:57:26;94828.22;;;7.60;68.24
56600;BME280;51832;48.152;11.530;2022-11-20T18:02:45;94826.31;;;7.67;68.15
56600;BME280;51832;48.152;11.530;2022-11-20T18:07:46;94826.09;;;7.69;68.03
56600;BME280;51832;48.152;11.530;2022-11-20T18:12:46;94810.84;;;7.47;68.94
56600;BME280;51832;48.152;11.530;2022-11-20T18:17:47;94821.41;;;7.16;69.50
56600;BME280;51832;48.152;11.530;2022-11-20T18:22:48;94819.09;;;7.08;69.74
56600;BME280;51832;48.152;11.530;2022-11-20T18:27:48;94814.56;;;7.15;69.48
56600;BME280;51832;48.152;11.530;2022-11-20T18:32:49;94804.81;;;7.04;69.88
56600;BME280;51832;48.152;11.530;2022-11-20T18:37:49;94788.00;;;7.18;69.21
56600;BME280;51832;48.152;11.530;2022-11-20T18:42:49;94803.97;;;7.28;68.85
56600;BME280;51832;48.152;11.530;2022-11-20T18:48:09;94790.19;;;7.39;68.65
56600;BME280;51832;48.152;11.530;2022-11-20T18:53:09;94783.72;;;7.42;68.71
56600;BME280;51832;48.152;11.530;2022-11-20T18:58:10;94772.75;;;7.33;68.92
56600;BME280;51832;48.152;11.530;2022-11-20T19:03:10;94778.84;;;7.27;68.83
56600;BME280;51832;48.152;11.530;2022-11-20T19:08:11;94764.88;;;7.15;69.14
56600;BME280;51832;48.152;11.530;2022-11-20T19:13:11;94764.00;;;7.03;70.02
56600;BME280;51832;48.152;11.530;2022-11-20T19:18:12;94763.34;;;7.07;69.16
56600;BME280;51832;48.152;11.530;2022-11-20T19:23:12;94746.50;;;7.22;69.24
56600;BME280;51832;48.152;11.530;2022-11-20T19:28:13;94754.84;;;7.30;68.19
56600;BME280;51832;48.152;11.530;2022-11-20T19:33:13;94743.94;;;6.97;69.78
56600;BME280;51832;48.152;11.530;2022-11-20T19:38:14;94752.53;;;7.22;68.89
56600;BME280;51832;48.152;11.530;2022-11-20T19:43:15;94746.72;;;7.20;69.27
56600;BME280;51832;48.152;11.530;2022-11-20T19:48:16;94754.03;;;7.11;69.19
56600;BME280;51832;48.152;11.530;2022-11-20T19:53:17;94743.34;;;7.13;69.57
56600;BME280;51832;48.152;11.530;2022-11-20T19:58:17;94727.22;;;7.16;69.20
56600;BME280;51832;48.152;11.530;2022-11-20T20:03:23;94719.44;;;7.28;68.07
56600;BME280;51832;48.152;11.530;2022-11-20T20:08:24;94725.19;;;7.18;68.10
56600;BME280;51832;48.152;11.530;2022-11-20T20:13:25;94710.06;;;7.02;68.71
56600;BME280;51832;48.152;11.530;2022-11-20T20:18:25;94703.53;;;7.11;68.15
56600;BME280;51832;48.152;11.530;2022-11-20T20:23:26;94706.94;;;7.11;68.01
56600;BME280;51832;48.152;11.530;2022-11-20T20:28:27;94697.94;;;7.26;67.22
56600;BME280;51832;48.152;11.530;2022-11-20T20:33:27;94693.97;;;7.23;67.44
56600;BME280;51832;48.152;11.530;2022-11-20T20:38:28;94693.38;;;7.21;66.66
56600;BME280;51832;48.152;11.530;2022-11-20T20:43:29;94703.03;;;7.21;66.53
56600;BME280;51832;48.152;11.530;2022-11-20T20:48:30;94695.63;;;7.18;66.57
56600;BME280;51832;48.152;11.530;2022-11-20T20:53:31;94689.00;;;7.33;65.80
56600;BME280;51832;48.152;11.530;2022-11-20T20:58:31;94692.41;;;7.16;66.30
56600;BME280;51832;48.152;11.530;2022-11-20T21:03:33;94690.75;;;7.03;66.29
56600;BME280;51832;48.152;11.530;2022-11-20T21:08:35;94695.19;;;7.02;65.19
56600;BME280;51832;48.152;11.530;2022-11-20T21:13:36;94683.19;;;7.13;64.12
56600;BME280;51832;48.152;11.530;2022-11-20T21:18:37;94677.38;;;7.11;63.62
56600;BME280;51832;48.152;11.530;2022-11-20T21:23:38;94678.09;;;7.18;62.30
56600;BME280;51832;48.152;11.530;2022-11-20T21:28:41;94678.41;;;7.10;62.81
56600;BME280;51832;48.152;11.530;2022-11-20T21:33:43;94686.59;;;7.13;61.94
56600;BME280;51832;48.152;11.530;2022-11-20T21:38:45;94707.09;;;6.98;62.97
56600;BME280;51832;48.152;11.530;2022-11-20T21:43:46;94716.00;;;6.72;64.98
56600;BME280;51832;48.152;11.530;2022-11-20T21:48:47;94761.91;;;6.87;66.38
56600;BME280;51832;48.152;11.530;2022-11-20T21:53:48;94746.69;;;6.34;71.16
56600;BME280;51832;48.152;11.530;2022-11-20T21:58:49;94731.28;;;6.26;73.68
56600;BME280;51832;48.152;11.530;2022-11-20T22:03:57;94731.28;;;6.51;73.24
56600;BME280;51832;48.152;11.530;2022-11-20T22:08:59;94730.41;;;6.32;74.41
56600;BME280;51832;48.152;11.530;2022-11-20T22:14:00;94703.81;;;6.41;74.34
56600;BME280;51832;48.152;11.530;2022-11-20T22:19:20;94707.81;;;6.69;74.23
56600;BME280;51832;48.152;11.530;2022-11-20T22:24:21;94703.13;;;6.53;75.69
56600;BME280;51832;48.152;11.530;2022-11-20T22:29:22;94711.84;;;6.65;75.24
56600;BME280;51832;48.152;11.530;2022-11-20T22:34:22;94717.19;;;6.52;75.78
56600;BME280;51832;48.152;11.530;2022-11-20T22:39:23;94725.84;;;6.27;77.17
56600;BME280;51832;48.152;11.530;2022-11-20T22:44:24;94739.25;;;6.06;78.45
56600;BME280;51832;48.152;11.530;2022-11-20T22:49:24;94738.81;;;5.71;80.30
56600;BME280;51832;48.152;11.530;2022-11-20T22:54:25;94734.09;;;5.93;80.46
56600;BME280;51832;48.152;11.530;2022-11-20T22:59:25;94722.72;;;5.74;81.41
56600;BME280;51832;48.152;11.530;2022-11-20T23:04:26;94747.13;;;5.48;81.47
56600;BME280;51832;48.152;11.530;2022-11-20T23:09:26;94743.41;;;5.31;82.33
56600;BME280;51832;48.152;11.530;2022-11-20T23:14:27;94731.94;;;5.39;83.07
56600;BME280;51832;48.152;11.530;2022-11-20T23:19:28;94738.28;;;5.56;82.09
56600;BME280;51832;48.152;11.530;2022-11-20T23:24:28;94731.47;;;5.48;81.45
56600;BME280;51832;48.152;11.530;2022-11-20T23:29:28;94728.84;;;5.55;82.21
56600;BME280;51832;48.152;11.530;2022-11-20T23:34:29;94727.72;;;5.44;81.88
56600;BME280;51832;48.152;11.530;2022-11-20T23:39:30;94731.13;;;5.38;82.43
56600;BME280;51832;48.152;11.530;2022-11-20T23:44:31;94709.81;;;5.48;81.87
56600;BME280;51832;48.152;11.530;2022-11-20T23:49:32;94718.28;;;5.36;82.31
56600;BME280;51832;48.152;11.530;2022-11-20T23:54:32;94731.53;;;5.42;82.14
56600;BME280;51832;48.152;11.530;2022-11-20T23:59:33;94735.38;;;5.26;81.87
